Time;durP1;ratioP1;P1;durP2;ratioP2;P2;SDS_P1;SDS_P2;PMS_P1;PMS_P2;Temp;Humidity;BMP_temperature;BMP_pressure;BME280_temperature;BME280_humidity;BME280_pressure;Samples;Min_cycle;Max_cycle;Signal;HPM_P1;HPM_P2
2022/01/31 00:00:59;;;;;;;3.40;1.00;;;2.50;99.90;;;;;;4281532;33;20189;-65
2022/01/31 00:07:34;;;;;;;2.07;1.00;;;2.50;99.90;;;;;;4247679;33;20150;-66
2022/01/31 00:10:39;;;;;;;2.23;0.90;;;2.40;99.90;;;;;;4235097;33;20226;-66
2022/01/31 00:13:27;;;;;;;1.80;0.80;;;2.40;99.90;;;;;;4261708;33;20154;-66
2022/01/31 00:15:55;;;;;;;2.27;0.77;;;2.30;99.90;;;;;;4237790;33;20557;-66
2022/01/31 00:18:21;;;;;;;1.37;0.80;;;2.30;99.90;;;;;;4250407;33;20197;-66
2022/01/31 00:20:51;;;;;;;2.07;0.90;;;2.30;99.90;;;;;;4249867;33;20631;-66
2022/01/31 00:23:18;;;;;;;1.70;0.60;;;2.20;99.90;;;;;;4250203;33;20297;-66
2022/01/31 00:26:09;;;;;;;0.70;0.70;;;2.20;99.90;;;;;;4249630;33;20186;-66
2022/01/31 00:28:35;;;;;;;1.87;0.80;;;2.20;99.90;;;;;;4271844;33;20153;-66
2022/01/31 00:31:12;;;;;;;3.13;0.80;;;2.20;99.90;;;;;;4341750;33;20180;-66
2022/01/31 00:33:46;;;;;;;2.17;0.80;;;2.20;99.90;;;;;;4341895;33;20176;-66
2022/01/31 00:36:16;;;;;;;1.53;0.73;;;2.20;99.90;;;;;;4341323;33;20192;-66
2022/01/31 00:39:05;;;;;;;1.17;0.80;;;2.20;99.90;;;;;;4347704;33;20172;-66
2022/01/31 00:42:05;;;;;;;1.90;0.90;;;2.10;99.90;;;;;;4366046;32;20568;-66
2022/01/31 00:44:55;;;;;;;0.80;0.80;;;2.10;99.90;;;;;;4392638;32;20410;-66
2022/01/31 00:47:40;;;;;;;3.17;0.90;;;2.10;99.90;;;;;;4391395;32;20199;-66
2022/01/31 00:50:11;;;;;;;1.63;0.97;;;2.10;99.90;;;;;;4380092;32;20199;-66
2022/01/31 00:52:46;;;;;;;2.67;0.83;;;2.10;99.90;;;;;;4379830;32;20248;-66
2022/01/31 00:55:45;;;;;;;;;;;;;;;;;;;;;
2022/01/31 00:58:39;;;;;;;1.10;0.90;;;2.10;99.90;;;;;;4378825;32;20221;-66
2022/01/31 01:01:53;;;;;;;2.60;0.93;;;2.10;99.90;;;;;;4387772;32;20175;-66
2022/01/31 01:04:26;;;;;;;3.33;1.20;;;2.00;99.90;;;;;;4379998;32;20561;-66
2022/01/31 01:07:36;;;;;;;1.57;1.07;;;2.10;99.90;;;;;;4360593;32;20616;-66
2022/01/31 01:10:22;;;;;;;2.63;1.10;;;2.10;99.90;;;;;;4361482;33;20569;-66
2022/01/31 01:12:54;;;;;;;1.73;1.00;;;2.20;99.90;;;;;;4350019;33;20430;-66
2022/01/31 01:16:08;;;;;;;4.40;0.97;;;2.30;99.90;;;;;;4350048;33;20202;-66
2022/01/31 01:18:53;;;;;;;2.20;0.97;;;2.20;99.90;;;;;;4362397;32;20172;-66
2022/01/31 01:21:23;;;;;;;3.00;0.80;;;2.30;99.90;;;;;;4349957;33;20218;-65
2022/01/31 01:23:50;;;;;;;1.70;1.20;;;2.30;99.90;;;;;;4361883;33;20202;-66
2022/01/31 01:26:19;;;;;;;1.97;1.00;;;2.30;99.90;;;;;;4363798;32;20301;-66
2022/01/31 01:28:46;;;;;;;1.93;0.90;;;2.20;99.90;;;;;;4363869;32;20210;-66
2022/01/31 01:31:16;;;;;;;1.87;0.80;;;2.20;99.90;;;;;;4362863;32;20206;-66
2022/01/31 01:33:44;;;;;;;2.47;1.07;;;2.10;99.90;;;;;;4362914;32;20438;-66
2022/01/31 01:36:26;;;;;;;1.77;1.00;;;2.10;99.90;;;;;;4361224;33;20455;-66
2022/01/31 01:39:28;;;;;;;1.47;0.90;;;2.10;99.90;;;;;;4368421;32;20172;-66
2022/01/31 01:42:46;;;;;;;1.73;0.83;;;2.10;99.90;;;;;;4371991;32;20190;-66
2022/01/31 01:48:29;;;;;;;2.87;0.93;;;2.00;99.90;;;;;;4317439;33;20562;-66
2022/01/31 01:50:58;;;;;;;2.57;0.90;;;1.90;99.90;;;;;;4305688;33;20599;-66
2022/01/31 01:53:37;;;;;;;2.40;1.07;;;1.90;99.90;;;;;;4304958;33;20665;-66
2022/01/31 01:56:23;;;;;;;2.27;0.97;;;1.90;99.90;;;;;;4305674;33;20188;-66
2022/01/31 01:59:22;;;;;;;2.80;0.80;;;1.90;99.90;;;;;;4304535;33;20177;-66
2022/01/31 02:02:31;;;;;;;3.53;1.00;;;1.90;99.90;;;;;;4305556;33;20173;-66
2022/01/31 02:05:30;;;;;;;3.47;1.00;;;1.90;99.90;;;;;;4305950;33;20493;-66
2022/01/31 02:09:51;;;;;;;;;;;;;;;;;;;;;
2022/01/31 02:12:49;;;;;;;1.13;0.70;;;1.80;99.90;;;;;;4316506;33;20184;-66
2022/01/31 02:15:41;;;;;;;3.23;0.80;;;1.80;99.90;;;;;;4282257;33;20236;-66
2022/01/31 02:18:16;;;;;;;3.23;0.80;;;1.80;99.90;;;;;;4304558;33;20188;-65
2022/01/31 02:20:58;;;;;;;2.13;0.90;;;1.90;99.90;;;;;;4305601;33;20173;-66
2022/01/31 02:23:39;;;;;;;2.97;0.90;;;1.90;99.90;;;;;;4317745;33;20189;-66
2022/01/31 02:26:26;;;;;;;2.77;1.00;;;1.90;99.90;;;;;;4363709;32;20175;-66
2022/01/31 02:29:11;;;;;;;1.27;0.83;;;2.00;99.90;;;;;;4378983;32;20226;-66
2022/01/31 02:32:12;;;;;;;1.07;0.70;;;2.00;99.90;;;;;;4403546;32;20582;-66
2022/01/31 02:35:38;;;;;;;;;;;;;;;;;;;;;
2022/01/31 02:39:25;;;;;;;2.00;1.00;;;2.00;99.90;;;;;;4336207;33;20223;-66
2022/01/31 02:43:31;;;;;;;0.97;0.83;;;2.00;99.90;;;;;;4288474;33;20241;-66
2022/01/31 02:50:34;;;;;;;2.13;1.00;;;1.70;99.90;;;;;;4217795;34;20180;-66
2022/01/31 02:54:03;;;;;;;2.03;1.20;;;1.70;99.90;;;;;;4240440;33;20209;-66
2022/01/31 02:57:14;;;;;;;1.80;1.00;;;1.60;99.90;;;;;;4214305;34;20262;-66
2022/01/31 03:00:28;;;;;;;2.53;1.00;;;1.60;99.90;;;;;;4177704;34;20176;-66
2022/01/31 03:36:20;;;;;;;;;;;;;;;;;;;;;
2022/01/31 03:53:32;;;;;;;;;;;;;;;;;;;;;
2022/01/31 03:57:00;;;;;;;11.47;2.23;;;1.50;99.90;;;;;;5336418;27;20144;-67
2022/01/31 03:59:58;;;;;;;8.87;2.83;;;1.40;99.90;;;;;;5336985;27;20139;-67
2022/01/31 04:03:27;;;;;;;11.13;2.90;;;1.40;99.90;;;;;;5249837;27;20469;-68
2022/01/31 04:05:58;;;;;;;10.40;2.00;;;1.50;99.90;;;;;;5315862;27;20184;-68
2022/01/31 04:17:42;;;;;;;10.90;2.30;;;1.50;99.90;;;;;;5013709;28;20193;-68
2022/01/31 04:21:15;;;;;;;8.73;2.23;;;1.50;99.90;;;;;;4961781;29;20144;-67
2022/01/31 04:24:18;;;;;;;;;;;;;;;;;;;;;
2022/01/31 04:27:44;;;;;;;8.57;2.10;;;1.40;99.90;;;;;;4946205;29;20447;-68
2022/01/31 04:34:03;;;;;;;9.23;2.30;;;1.30;99.90;;;;;;5022023;28;20442;-67
2022/01/31 04:37:05;;;;;;;10.53;2.30;;;1.20;99.90;;;;;;5023494;28;20133;-67
2022/01/31 04:40:45;;;;;;;11.30;2.50;;;1.20;99.90;;;;;;5004030;28;20153;-68
2022/01/31 04:44:18;;;;;;;17.43;2.60;;;1.10;99.90;;;;;;4964748;28;20142;-68
2022/01/31 04:47:24;;;;;;;11.93;2.60;;;1.10;99.90;;;;;;4963833;28;20210;-68
2022/01/31 04:50:00;;;;;;;9.97;2.47;;;1.10;99.90;;;;;;5098750;28;20507;-68
2022/01/31 04:53:36;;;;;;;;;;;;;;;;;;;;;
2022/01/31 04:57:06;;;;;;;;;;;;;;;;;;;;;
2022/01/31 05:00:16;;;;;;;14.70;3.10;;;1.00;99.90;;;;;;5180040;27;20134;-67
2022/01/31 05:03:35;;;;;;;9.83;2.83;;;1.00;99.90;;;;;;5160423;27;20417;-67
2022/01/31 05:07:02;;;;;;;11.47;3.37;;;0.90;99.90;;;;;;5171306;27;20166;-68
2022/01/31 05:10:41;;;;;;;;;;;;;;;;;;;;;
2022/01/31 05:13:12;;;;;;;12.10;3.20;;;0.90;99.90;;;;;;5111190;27;20180;-67
2022/01/31 05:16:28;;;;;;;18.50;3.60;;;0.90;99.90;;;;;;5199053;27;20143;-68
2022/01/31 05:19:53;;;;;;;18.83;3.67;;;0.90;99.90;;;;;;5210773;27;20150;-67
2022/01/31 05:23:17;;;;;;;14.30;3.20;;;0.90;99.90;;;;;;5223407;27;20194;-68
2022/01/31 05:26:06;;;;;;;13.10;3.17;;;0.90;99.90;;;;;;5223009;27;20153;-68
2022/01/31 05:30:00;;;;;;;10.47;3.60;;;0.80;99.90;;;;;;5206504;27;20203;-68
2022/01/31 05:33:08;;;;;;;11.50;3.43;;;0.90;99.90;;;;;;5160079;27;20139;-68
2022/01/31 05:35:50;;;;;;;11.87;3.00;;;0.90;99.90;;;;;;5175280;27;20147;-68
2022/01/31 05:38:19;;;;;;;12.13;3.20;;;0.80;99.90;;;;;;5209659;27;20198;-68
2022/01/31 05:40:50;;;;;;;14.33;3.30;;;0.80;99.90;;;;;;5223252;27;20162;-68
2022/01/31 05:43:20;;;;;;;12.70;3.53;;;0.80;99.90;;;;;;5224474;27;20184;-68
2022/01/31 05:46:05;;;;;;;14.30;3.13;;;0.90;99.90;;;;;;5257055;27;20126;-68
2022/01/31 05:48:39;;;;;;;11.47;3.43;;;0.90;99.90;;;;;;5310777;27;20155;-67
2022/01/31 05:51:31;;;;;;;13.27;3.30;;;0.80;99.90;;;;;;5311673;27;20525;-68
2022/01/31 05:54:17;;;;;;;15.63;4.17;;;0.80;99.90;;;;;;5311076;27;20164;-67
2022/01/31 05:56:44;;;;;;;14.60;3.50;;;0.80;99.90;;;;;;5310424;27;20188;-68
2022/01/31 06:00:02;;;;;;;15.13;4.27;;;0.70;99.90;;;;;;5310618;27;20189;-68
2022/01/31 06:02:59;;;;;;;15.80;3.53;;;0.70;99.90;;;;;;5309384;27;20145;-68
2022/01/31 06:05:58;;;;;;;11.50;3.50;;;0.70;99.90;;;;;;5311240;27;20137;-68
2022/01/31 06:08:35;;;;;;;14.50;3.97;;;0.70;99.90;;;;;;5330301;27;20118;-68
2022/01/31 06:11:19;;;;;;;14.63;3.73;;;0.70;99.90;;;;;;5311344;27;20346;-67
2022/01/31 06:14:02;;;;;;;15.90;3.90;;;0.70;99.90;;;;;;5330476;27;20175;-67
2022/01/31 06:16:40;;;;;;;14.90;3.97;;;0.70;99.90;;;;;;5311067;27;20149;-67
2022/01/31 06:19:16;;;;;;;15.77;4.23;;;0.70;99.90;;;;;;5310747;27;20141;-68
2022/01/31 06:21:52;;;;;;;12.57;4.30;;;0.60;99.90;;;;;;5310648;27;20416;-68
2022/01/31 06:24:20;;;;;;;17.70;4.00;;;0.70;99.90;;;;;;5330849;27;20502;-67
2022/01/31 06:26:58;;;;;;;14.83;4.10;;;0.70;99.90;;;;;;5310415;27;20413;-68
2022/01/31 06:29:26;;;;;;;15.70;4.07;;;0.70;99.90;;;;;;5312034;27;20179;-68
2022/01/31 06:32:03;;;;;;;16.40;3.77;;;0.70;99.90;;;;;;5310267;27;20152;-68
2022/01/31 06:34:30;;;;;;;15.03;3.87;;;0.70;99.90;;;;;;5311583;27;20140;-68
2022/01/31 06:37:04;;;;;;;16.80;4.13;;;0.70;99.90;;;;;;5311149;27;20137;-67
2022/01/31 06:39:31;;;;;;;13.70;3.80;;;0.70;99.90;;;;;;5310949;27;20156;-68
2022/01/31 06:41:59;;;;;;;14.80;4.03;;;0.70;99.90;;;;;;5310086;27;20568;-68
2022/01/31 06:44:29;;;;;;;15.60;4.70;;;0.60;99.90;;;;;;5310064;27;20573;-68
2022/01/31 06:47:11;;;;;;;15.17;4.27;;;0.70;99.90;;;;;;5309261;27;20382;-68
2022/01/31 06:49:38;;;;;;;18.87;4.20;;;0.70;99.90;;;;;;5310348;27;20511;-68
2022/01/31 06:52:06;;;;;;;15.00;3.77;;;0.70;99.90;;;;;;5306769;27;20384;-68
2022/01/31 06:54:51;;;;;;;13.13;4.23;;;0.60;99.90;;;;;;5306334;27;20556;-68
2022/01/31 06:57:24;;;;;;;18.13;4.27;;;0.60;99.90;;;;;;5308806;27;20169;-68
2022/01/31 06:59:52;;;;;;;18.13;4.40;;;0.60;99.90;;;;;;5306674;27;20145;-68
2022/01/31 07:02:20;;;;;;;16.60;4.67;;;0.60;99.90;;;;;;5306808;27;20157;-68
2022/01/31 07:05:00;;;;;;;13.97;3.90;;;0.50;99.90;;;;;;5307887;27;20170;-67
2022/01/31 07:07:33;;;;;;;13.93;4.37;;;0.50;99.90;;;;;;5308897;27;20168;-67
2022/01/31 07:10:04;;;;;;;15.27;4.37;;;0.60;99.90;;;;;;5307184;27;20146;-67
2022/01/31 07:12:40;;;;;;;11.83;3.77;;;0.60;99.90;;;;;;5306418;27;20194;-68
2022/01/31 07:15:19;;;;;;;11.97;4.23;;;0.50;99.90;;;;;;5307672;27;20145;-67
2022/01/31 07:18:37;;;;;;;14.77;4.23;;;0.60;99.90;;;;;;5306612;27;20183;-68
2022/01/31 07:21:37;;;;;;;13.93;4.20;;;0.70;99.90;;;;;;5305672;27;20205;-67
2022/01/31 07:24:21;;;;;;;12.47;4.23;;;0.80;99.90;;;;;;5307122;27;20404;-67
2022/01/31 07:26:58;;;;;;;14.37;4.10;;;0.80;99.90;;;;;;5307011;27;20137;-68
2022/01/31 07:29:26;;;;;;;14.83;4.37;;;0.80;99.90;;;;;;5308612;27;20354;-67
2022/01/31 07:32:00;;;;;;;12.27;4.40;;;0.80;99.90;;;;;;5308731;27;20113;-67
2022/01/31 07:34:27;;;;;;;17.80;5.10;;;0.80;99.90;;;;;;5308539;27;20161;-67
2022/01/31 07:36:55;;;;;;;14.67;5.07;;;0.80;99.90;;;;;;5306341;27;20173;-68
2022/01/31 07:39:25;;;;;;;12.83;4.43;;;0.80;99.90;;;;;;5306845;27;20479;-68
2022/01/31 07:41:53;;;;;;;17.43;5.23;;;0.90;99.90;;;;;;5306845;27;20153;-68
2022/01/31 07:44:20;;;;;;;14.30;4.53;;;0.90;99.90;;;;;;5307939;27;20149;-67
2022/01/31 07:46:49;;;;;;;16.73;5.13;;;0.80;99.90;;;;;;5308078;27;20177;-67
2022/01/31 07:49:16;;;;;;;13.50;4.40;;;0.80;99.90;;;;;;5306850;27;20141;-67
2022/01/31 07:51:43;;;;;;;15.07;4.70;;;0.80;99.90;;;;;;5309448;27;20203;-67
2022/01/31 07:54:11;;;;;;;15.57;5.20;;;0.80;99.90;;;;;;5330249;27;20463;-67
2022/01/31 07:56:41;;;;;;;10.53;4.33;;;0.90;99.90;;;;;;5310386;27;20189;-67
2022/01/31 07:59:19;;;;;;;14.97;4.83;;;0.90;99.90;;;;;;5310135;27;20537;-67
2022/01/31 08:02:07;;;;;;;15.10;4.70;;;0.80;99.90;;;;;;5309942;27;20546;-67
2022/01/31 08:05:40;;;;;;;16.40;4.87;;;0.90;99.90;;;;;;5330110;27;20359;-67
2022/01/31 08:08:29;;;;;;;14.67;4.33;;;1.10;99.90;;;;;;5309881;27;20467;-67
2022/01/31 08:11:14;;;;;;;17.27;4.53;;;1.20;99.90;;;;;;5309696;27;20513;-66
2022/01/31 08:14:10;;;;;;;13.57;4.40;;;1.00;99.90;;;;;;5303740;27;20488;-67
2022/01/31 08:17:21;;;;;;;14.53;4.40;;;1.10;99.90;;;;;;5309494;27;20149;-67
2022/01/31 08:28:11;;;;;;;19.17;4.40;;;1.00;99.90;;;;;;5135277;28;20255;-69
2022/01/31 08:31:34;;;;;;;16.03;4.60;;;1.10;99.90;;;;;;5161113;27;20143;-67
2022/01/31 08:37:07;;;;;;;15.20;3.97;;;1.10;99.90;;;;;;5309927;27;20149;-68
2022/01/31 08:39:37;;;;;;;14.63;4.13;;;1.10;99.90;;;;;;5294445;27;20152;-67
2022/01/31 08:42:14;;;;;;;12.07;4.57;;;1.20;99.90;;;;;;5309270;27;20441;-66
2022/01/31 08:45:18;;;;;;;16.90;4.10;;;1.20;99.90;;;;;;5279709;27;20150;-66
2022/01/31 08:47:46;;;;;;;16.47;4.30;;;1.30;99.90;;;;;;5331332;27;20117;-66
2022/01/31 08:50:13;;;;;;;11.73;4.23;;;1.40;99.90;;;;;;5311670;27;20185;-66
2022/01/31 08:52:50;;;;;;;11.57;3.90;;;1.40;99.90;;;;;;5311768;27;20221;-68
2022/01/31 08:55:20;;;;;;;13.13;4.00;;;1.50;99.90;;;;;;5310577;27;20240;-67
2022/01/31 08:57:52;;;;;;;13.93;4.23;;;1.50;99.90;;;;;;5310505;27;20152;-66
2022/01/31 09:00:22;;;;;;;12.20;4.33;;;1.50;99.90;;;;;;5310513;27;20137;-66
2022/01/31 09:03:02;;;;;;;13.03;4.93;;;1.60;99.90;;;;;;5330751;27;20197;-65
2022/01/31 09:05:30;;;;;;;17.67;4.47;;;1.60;99.90;;;;;;5332643;27;20129;-65
2022/01/31 09:07:57;;;;;;;15.87;4.63;;;1.60;99.90;;;;;;5332030;27;20118;-65
2022/01/31 09:10:24;;;;;;;16.27;4.33;;;1.60;99.90;;;;;;5310970;27;20150;-65
2022/01/31 09:12:51;;;;;;;14.20;4.10;;;1.60;99.90;;;;;;5310860;27;20137;-65
2022/01/31 09:15:18;;;;;;;14.73;4.80;;;1.70;99.90;;;;;;5311499;27;20480;-65
2022/01/31 09:17:45;;;;;;;13.80;4.07;;;1.70;99.90;;;;;;5332058;27;20501;-65
2022/01/31 09:20:12;;;;;;;15.30;4.83;;;1.60;99.90;;;;;;5310879;27;20133;-65
2022/01/31 09:22:42;;;;;;;15.67;4.73;;;1.50;99.90;;;;;;5332746;27;20137;-65
2022/01/31 09:25:16;;;;;;;15.37;4.50;;;1.60;99.90;;;;;;5313107;27;20211;-65
2022/01/31 09:27:43;;;;;;;10.33;3.90;;;1.70;99.90;;;;;;5310757;27;20152;-65
2022/01/31 09:30:12;;;;;;;14.67;4.30;;;1.60;99.90;;;;;;5313145;27;20137;-65
2022/01/31 09:32:39;;;;;;;14.77;4.10;;;1.60;99.90;;;;;;5312095;27;20186;-65
2022/01/31 09:35:07;;;;;;;17.87;4.53;;;1.80;99.90;;;;;;5330816;27;20121;-68
2022/01/31 09:37:34;;;;;;;16.23;4.27;;;1.80;99.90;;;;;;5331703;27;20155;-66
2022/01/31 09:40:04;;;;;;;12.10;4.20;;;1.80;99.90;;;;;;5310803;27;20146;-67
2022/01/31 09:42:40;;;;;;;11.30;4.37;;;2.00;99.90;;;;;;5331058;27;20163;-66
2022/01/31 09:45:21;;;;;;;13.97;4.37;;;1.90;99.90;;;;;;5311026;27;20250;-66
2022/01/31 09:50:27;;;;;;;11.23;4.27;;;2.10;99.90;;;;;;5310859;27;20190;-68
2022/01/31 09:52:55;;;;;;;13.17;4.33;;;2.10;99.90;;;;;;5311230;27;20169;-66
2022/01/31 09:55:28;;;;;;;13.10;4.73;;;2.30;99.90;;;;;;5330299;27;20126;-66
2022/01/31 09:57:59;;;;;;;12.03;4.00;;;2.40;99.90;;;;;;5311031;27;20197;-67
2022/01/31 10:00:33;;;;;;;11.47;3.77;;;2.20;99.90;;;;;;5311480;27;20165;-67
2022/01/31 10:03:09;;;;;;;10.70;3.80;;;2.30;99.90;;;;;;5310253;27;20152;-67
2022/01/31 10:05:38;;;;;;;11.03;3.40;;;2.30;99.90;;;;;;5312985;27;20146;-67
2022/01/31 10:08:17;;;;;;;9.67;3.57;;;2.20;99.90;;;;;;5311400;27;20160;-67
2022/01/31 10:10:47;;;;;;;9.57;3.70;;;2.30;99.90;;;;;;5311768;27;20510;-67
2022/01/31 10:16:32;;;;;;;12.87;3.90;;;2.30;99.90;;;;;;5312237;27;20534;-66
2022/01/31 10:19:19;;;;;;;12.40;4.03;;;2.20;99.90;;;;;;5330980;27;20180;-68
2022/01/31 10:22:04;;;;;;;16.43;4.00;;;2.30;99.90;;;;;;5311480;27;20178;-67
2022/01/31 10:24:35;;;;;;;13.37;3.47;;;2.20;99.90;;;;;;5331600;27;20118;-67
2022/01/31 10:27:16;;;;;;;14.10;3.90;;;2.40;99.90;;;;;;5310952;27;20194;-66
2022/01/31 10:29:55;;;;;;;14.57;4.20;;;2.60;99.90;;;;;;5310560;27;20482;-66
2022/01/31 10:32:29;;;;;;;9.53;3.60;;;2.70;99.90;;;;;;5312567;27;20172;-66
2022/01/31 10:35:03;;;;;;;11.67;3.60;;;2.50;99.90;;;;;;5310764;27;20491;-66
2022/01/31 10:37:34;;;;;;;9.47;3.47;;;2.50;99.90;;;;;;5332019;27;20338;-68
2022/01/31 10:45:51;;;;;;;11.07;3.00;;;2.70;99.90;;;;;;5310232;27;20153;-66
2022/01/31 10:57:10;;;;;;;7.80;2.63;;;2.80;99.90;;;;;;5330893;27;20105;-65
2022/01/31 10:59:40;;;;;;;9.37;3.03;;;2.70;99.90;;;;;;5202047;27;20152;-65
2022/01/31 11:02:18;;;;;;;6.03;2.30;;;2.60;99.90;;;;;;5203495;27;20161;-65
2022/01/31 11:04:48;;;;;;;8.53;2.60;;;2.60;99.90;;;;;;5201822;27;20135;-65
2022/01/31 11:07:28;;;;;;;9.60;2.50;;;2.50;99.90;;;;;;5201846;27;20143;-65
2022/01/31 11:09:56;;;;;;;8.70;2.47;;;2.60;99.90;;;;;;5201406;27;20146;-65
2022/01/31 11:12:23;;;;;;;8.93;2.17;;;2.60;99.90;;;;;;5202037;27;20168;-65
2022/01/31 11:14:53;;;;;;;7.40;2.40;;;2.50;99.90;;;;;;5202381;27;20155;-65
2022/01/31 11:17:22;;;;;;;5.93;2.50;;;2.60;99.90;;;;;;5219433;27;20185;-65
2022/01/31 11:19:56;;;;;;;10.60;2.80;;;2.80;99.90;;;;;;5201874;27;20007;-65
2022/01/31 11:22:32;;;;;;;7.27;2.37;;;2.90;99.90;;;;;;5201401;27;20528;-66
2022/01/31 11:25:15;;;;;;;6.47;2.23;;;2.90;99.90;;;;;;5201304;27;20189;-65
2022/01/31 11:28:03;;;;;;;7.33;2.50;;;2.90;99.90;;;;;;5219005;27;20174;-65
2022/01/31 11:30:33;;;;;;;7.83;2.40;;;2.90;99.90;;;;;;5201526;27;20150;-65
2022/01/31 11:33:02;;;;;;;6.47;2.67;;;3.00;99.90;;;;;;5218485;27;20146;-65
2022/01/31 11:35:29;;;;;;;5.07;2.40;;;3.10;99.90;;;;;;5219680;27;20415;-65
2022/01/31 11:37:56;;;;;;;7.47;2.30;;;3.20;99.90;;;;;;5327158;27;20125;-67
2022/01/31 11:40:23;;;;;;;3.77;2.00;;;3.30;99.90;;;;;;5309908;27;20485;-66
2022/01/31 11:42:52;;;;;;;6.30;2.00;;;3.30;99.90;;;;;;5309785;27;20425;-66
2022/01/31 11:45:34;;;;;;;6.00;2.10;;;3.20;99.90;;;;;;5329759;27;20185;-67
2022/01/31 11:48:09;;;;;;;7.63;2.10;;;3.20;99.90;;;;;;5310528;27;20368;-67
2022/01/31 11:50:44;;;;;;;6.63;2.30;;;3.20;99.90;;;;;;5330815;27;20114;-66
2022/01/31 11:53:11;;;;;;;8.57;2.37;;;3.50;99.90;;;;;;5310173;27;20156;-66
2022/01/31 11:55:41;;;;;;;7.30;2.33;;;3.40;99.90;;;;;;5330765;27;20150;-66
2022/01/31 11:58:17;;;;;;;7.20;2.37;;;3.00;99.90;;;;;;5309750;27;20208;-67
2022/01/31 12:00:47;;;;;;;6.47;2.43;;;2.80;99.90;;;;;;5330439;27;20126;-68
2022/01/31 12:03:16;;;;;;;6.73;2.87;;;2.90;99.90;;;;;;5310314;27;20160;-67
2022/01/31 12:05:45;;;;;;;7.03;2.70;;;2.90;99.90;;;;;;5311302;27;20137;-67
2022/01/31 12:08:18;;;;;;;8.40;2.67;;;2.80;99.90;;;;;;5311616;27;20187;-67
2022/01/31 12:11:02;;;;;;;5.97;2.50;;;2.80;99.90;;;;;;5311640;27;20163;-68
2022/01/31 12:13:49;;;;;;;9.50;2.60;;;2.80;99.90;;;;;;5312071;27;20183;-67
2022/01/31 12:22:05;;;;;;;9.30;2.40;;;2.70;99.90;;;;;;5312171;27;20402;-67
2022/01/31 12:24:38;;;;;;;7.57;2.50;;;2.70;99.90;;;;;;5311349;27;20136;-67
2022/01/31 12:27:25;;;;;;;5.53;2.60;;;2.50;99.90;;;;;;5313059;27;20183;-68
2022/01/31 12:29:58;;;;;;;7.40;2.13;;;2.40;99.90;;;;;;5309277;27;20152;-67
2022/01/31 12:32:49;;;;;;;5.00;2.10;;;2.50;99.90;;;;;;5331366;27;20114;-67
2022/01/31 12:35:35;;;;;;;9.23;2.30;;;2.60;99.90;;;;;;5311533;27;20141;-66
2022/01/31 12:38:04;;;;;;;6.97;2.53;;;3.30;99.90;;;;;;5312010;27;20153;-66
2022/01/31 12:40:57;;;;;;;5.57;2.00;;;3.90;99.90;;;;;;5310909;27;20132;-67
2022/01/31 12:43:51;;;;;;;7.17;2.43;;;4.00;99.90;;;;;;5330408;27;20200;-67
2022/01/31 12:46:21;;;;;;;7.17;2.37;;;3.70;99.90;;;;;;5331414;27;20150;-67
2022/01/31 12:49:10;;;;;;;9.17;2.43;;;3.30;99.90;;;;;;5311895;27;20137;-66
2022/01/31 12:52:15;;;;;;;7.33;2.50;;;3.10;99.90;;;;;;5310883;27;20487;-67
2022/01/31 12:55:11;;;;;;;7.43;2.30;;;3.10;99.90;;;;;;5331545;27;20192;-66
2022/01/31 12:58:17;;;;;;;6.17;2.13;;;3.30;99.90;;;;;;5262964;27;20188;-67
2022/01/31 13:00:58;;;;;;;;;;;;;;;;;;;;;
2022/01/31 13:10:51;;;;;;;6.53;2.40;;;3.70;99.90;;;;;;5198942;27;20147;-66
2022/01/31 13:20:47;;;;;;;9.17;2.60;;;4.50;99.90;;;;;;5139727;27;20226;-66
2022/01/31 13:23:12;;;;;;;7.50;2.63;;;3.80;99.90;;;;;;5154287;27;20163;-67
2022/01/31 13:25:50;;;;;;;5.53;2.90;;;3.40;99.90;;;;;;5138576;27;20160;-67
2022/01/31 13:28:39;;;;;;;8.43;2.53;;;3.30;99.90;;;;;;5156941;27;20141;-66
2022/01/31 13:31:44;;;;;;;9.23;3.00;;;3.10;99.90;;;;;;5128601;27;20167;-67
2022/01/31 13:34:12;;;;;;;10.80;3.23;;;3.00;99.90;;;;;;5139199;27;20200;-66
2022/01/31 13:36:40;;;;;;;12.70;2.37;;;2.70;99.90;;;;;;5139535;27;20147;-66
2022/01/31 13:39:35;;;;;;;8.60;2.47;;;2.90;99.90;;;;;;5156435;27;20526;-66
2022/01/31 13:42:07;;;;;;;7.17;2.30;;;2.70;99.90;;;;;;5155801;27;20139;-66
2022/01/31 13:44:35;;;;;;;10.07;2.63;;;2.70;99.90;;;;;;5139743;27;20154;-67
2022/01/31 13:47:27;;;;;;;7.97;2.90;;;2.70;99.90;;;;;;5165226;27;20154;-68
2022/01/31 13:50:00;;;;;;;9.13;3.47;;;2.50;99.90;;;;;;5219443;27;20222;-67
2022/01/31 13:52:48;;;;;;;9.70;3.33;;;2.40;99.90;;;;;;5220215;27;20213;-67
2022/01/31 13:56:03;;;;;;;8.77;3.30;;;2.30;99.90;;;;;;5220105;27;20527;-67
2022/01/31 13:58:33;;;;;;;8.80;3.33;;;2.10;99.90;;;;;;5223758;27;20174;-67
2022/01/31 14:01:01;;;;;;;8.70;3.50;;;2.20;99.90;;;;;;5223519;27;20238;-67
2022/01/31 14:03:47;;;;;;;11.27;4.27;;;2.30;99.90;;;;;;5222549;27;20143;-67
2022/01/31 14:06:15;;;;;;;10.97;4.23;;;2.10;99.90;;;;;;5222916;27;20154;-67
2022/01/31 14:08:52;;;;;;;14.57;4.60;;;2.10;99.90;;;;;;5221849;27;20139;-67
2022/01/31 14:11:50;;;;;;;10.73;4.27;;;2.10;99.90;;;;;;5222251;27;20178;-66
2022/01/31 14:14:40;;;;;;;12.03;4.70;;;2.00;99.90;;;;;;5223138;27;20145;-67
2022/01/31 14:17:40;;;;;;;8.40;3.93;;;2.00;99.90;;;;;;5240823;27;20152;-67
2022/01/31 14:20:10;;;;;;;10.03;4.37;;;2.00;99.90;;;;;;5222433;27;20135;-68
2022/01/31 14:22:38;;;;;;;9.63;4.27;;;1.90;99.90;;;;;;5241716;27;20146;-67
2022/01/31 14:25:11;;;;;;;10.60;4.07;;;1.90;99.90;;;;;;5222410;27;20150;-68
2022/01/31 14:27:51;;;;;;;16.43;5.03;;;1.80;99.90;;;;;;5223763;27;20181;-67
2022/01/31 14:30:21;;;;;;;13.27;5.20;;;1.70;99.90;;;;;;5222245;27;20574;-67
2022/01/31 14:33:07;;;;;;;13.03;4.40;;;1.70;99.90;;;;;;5222818;27;20143;-66
2022/01/31 14:35:36;;;;;;;12.37;4.57;;;1.70;99.90;;;;;;5267980;27;20146;-67
2022/01/31 14:38:21;;;;;;;13.83;4.93;;;1.70;99.90;;;;;;5284676;27;20142;-67
2022/01/31 14:49:21;;;;;;;14.83;5.33;;;1.60;99.90;;;;;;5284905;27;20157;-67
2022/01/31 14:51:51;;;;;;;13.20;5.27;;;1.60;99.90;;;;;;5290063;27;20138;-67
2022/01/31 14:54:19;;;;;;;16.73;5.50;;;1.60;99.90;;;;;;5310087;27;20169;-66
2022/01/31 14:56:46;;;;;;;13.00;5.27;;;1.50;99.90;;;;;;5310749;27;20197;-66
2022/01/31 14:59:23;;;;;;;14.13;5.10;;;1.40;99.90;;;;;;5331017;27;20101;-67
2022/01/31 15:01:51;;;;;;;14.10;5.30;;;1.50;99.90;;;;;;5310488;27;20206;-66
2022/01/31 15:04:39;;;;;;;16.37;5.03;;;1.40;99.90;;;;;;5310407;27;20160;-66
2022/01/31 15:07:08;;;;;;;14.97;4.87;;;1.40;99.90;;;;;;5310156;27;20152;-67
2022/01/31 15:09:36;;;;;;;19.00;5.20;;;1.30;99.90;;;;;;5330672;27;20110;-67
2022/01/31 15:12:03;;;;;;;14.77;6.23;;;1.30;99.90;;;;;;5309698;27;20197;-66
2022/01/31 15:14:33;;;;;;;15.07;5.53;;;1.20;99.90;;;;;;5329755;27;20121;-66
2022/01/31 15:17:02;;;;;;;13.27;5.80;;;1.20;99.90;;;;;;5310808;27;20340;-66
2022/01/31 15:19:30;;;;;;;13.90;6.13;;;1.10;99.90;;;;;;5310689;27;20432;-67
2022/01/31 15:21:58;;;;;;;18.03;5.90;;;1.10;99.90;;;;;;5330556;27;20375;-67
2022/01/31 15:24:25;;;;;;;16.93;5.27;;;1.00;99.90;;;;;;5309723;27;20423;-66
2022/01/31 15:26:52;;;;;;;17.23;5.87;;;1.00;99.90;;;;;;5311870;27;20172;-67
2022/01/31 15:29:19;;;;;;;15.80;5.80;;;0.90;99.90;;;;;;5311853;27;20175;-67
2022/01/31 15:31:46;;;;;;;16.87;6.03;;;0.90;99.90;;;;;;5309335;27;20515;-67
2022/01/31 15:34:14;;;;;;;16.20;5.87;;;0.90;99.90;;;;;;5309817;27;20424;-67
2022/01/31 15:36:41;;;;;;;16.37;6.33;;;0.80;99.90;;;;;;5309720;27;20587;-67
2022/01/31 15:39:14;;;;;;;17.93;6.13;;;0.80;99.90;;;;;;5311553;27;20141;-67
2022/01/31 15:41:42;;;;;;;16.60;5.83;;;0.80;99.90;;;;;;5311834;27;20184;-67
2022/01/31 15:44:15;;;;;;;16.57;6.17;;;0.70;99.90;;;;;;5330451;27;20152;-67
2022/01/31 15:46:43;;;;;;;14.93;6.30;;;0.80;99.90;;;;;;5311155;27;20137;-69
2022/01/31 15:49:10;;;;;;;21.40;6.40;;;0.80;99.90;;;;;;5310604;27;20168;-67
2022/01/31 15:51:37;;;;;;;18.30;7.37;;;0.90;99.90;;;;;;5310548;27;20145;-66
2022/01/31 15:54:04;;;;;;;20.00;7.07;;;0.80;99.90;;;;;;5312086;27;20159;-66
2022/01/31 15:56:31;;;;;;;23.87;7.40;;;0.80;99.90;;;;;;5311910;27;20200;-68
2022/01/31 15:58:58;;;;;;;22.53;7.67;;;0.80;99.90;;;;;;5310062;27;20149;-67
2022/01/31 16:01:27;;;;;;;22.70;7.53;;;0.70;99.90;;;;;;5309377;27;20141;-67
2022/01/31 16:03:56;;;;;;;19.87;7.60;;;0.80;99.90;;;;;;5309903;27;20156;-67
2022/01/31 16:06:23;;;;;;;20.43;7.43;;;0.80;99.90;;;;;;5328954;27;20414;-67
2022/01/31 16:08:50;;;;;;;21.90;8.53;;;0.90;99.90;;;;;;5309877;27;20141;-68
2022/01/31 16:11:17;;;;;;;25.13;8.40;;;0.90;99.90;;;;;;5310636;27;20168;-68
2022/01/31 16:14:10;;;;;;;16.63;6.67;;;0.80;99.90;;;;;;5329060;27;20126;-68
2022/01/31 16:16:43;;;;;;;18.83;7.67;;;0.80;99.90;;;;;;5309826;27;20145;-68
2022/01/31 16:19:10;;;;;;;25.27;8.43;;;0.90;99.90;;;;;;5329393;27;20303;-69
2022/01/31 16:21:37;;;;;;;22.83;8.37;;;0.90;99.90;;;;;;5331698;27;20129;-68
2022/01/31 16:24:04;;;;;;;23.50;8.30;;;0.80;99.90;;;;;;5311531;27;20503;-69
2022/01/31 16:26:32;;;;;;;19.00;7.83;;;0.80;99.90;;;;;;5311334;27;20176;-69
2022/01/31 16:28:59;;;;;;;19.93;7.60;;;0.90;99.90;;;;;;5310102;27;20152;-68
2022/01/31 16:31:26;;;;;;;22.13;8.20;;;0.80;99.90;;;;;;5307859;27;20495;-69